Time;durP1;ratioP1;P1;durP2;ratioP2;P2;SDS_P1;SDS_P2;PMS_P1;PMS_P2;Temp;Humidity;BMP_temperature;BMP_pressure;BME280_temperature;BME280_humidity;BME280_pressure;Samples;Min_cycle;Max_cycle;Signal;HPM_P1;HPM_P2
2022/01/06 00:00:37;;;;;;;10.50;3.38;;;3.60;99.90;;;1.83;100.00;101018.09;2568860;30;137448;-40
2022/01/06 00:03:05;;;;;;;13.60;3.42;;;3.60;99.90;;;1.86;100.00;101028.56;2568311;30;137381;-40
2022/01/06 00:05:32;;;;;;;11.10;3.20;;;3.60;99.90;;;1.79;100.00;101022.06;2567477;30;137551;-40
2022/01/06 00:08:01;;;;;;;9.85;3.03;;;3.60;99.90;;;1.75;100.00;101026.06;2567528;30;138242;-40
2022/01/06 00:10:31;;;;;;;8.95;3.08;;;3.50;99.90;;;1.75;100.00;101022.56;2568446;30;137464;-40
2022/01/06 00:23:51;;;;;;;13.15;3.20;;;3.70;99.90;;;1.95;100.00;101045.63;2567818;30;137094;-40
2022/01/06 00:26:18;;;;;;;6.85;2.40;;;3.70;99.90;;;1.96;100.00;101046.50;2566268;30;137305;-40
2022/01/06 00:28:46;;;;;;;11.77;2.80;;;3.70;99.90;;;1.96;100.00;101046.50;2568336;30;137306;-40
2022/01/06 00:31:14;;;;;;;12.98;2.92;;;3.70;99.90;;;1.86;100.00;101046.56;2565324;30;137023;-40
2022/01/06 00:33:41;;;;;;;11.68;3.17;;;3.70;99.90;;;1.86;100.00;101054.63;2570381;30;137367;-37
2022/01/06 00:36:09;;;;;;;9.10;2.42;;;3.70;99.90;;;1.78;100.00;101058.06;2568711;30;136749;-37
2022/01/06 00:38:36;;;;;;;14.30;2.78;;;3.60;99.90;;;1.77;100.00;101048.28;2566903;30;138915;-37
2022/01/06 00:41:04;;;;;;;14.07;2.85;;;3.60;99.90;;;1.70;100.00;101056.09;2568375;30;138362;-38
2022/01/06 00:43:31;;;;;;;12.07;2.50;;;3.50;99.90;;;1.65;100.00;101055.72;2567165;30;138137;-38
2022/01/06 00:45:59;;;;;;;8.50;3.13;;;3.50;99.90;;;1.60;100.00;101066.06;2567726;30;136682;-37
2022/01/06 00:48:27;;;;;;;10.82;2.45;;;3.50;99.90;;;1.54;100.00;101077.41;2568397;30;138310;-37
2022/01/06 00:50:54;;;;;;;14.77;2.88;;;3.40;99.90;;;1.49;100.00;101075.16;2568376;30;137389;-37
2022/01/06 00:53:22;;;;;;;9.18;2.05;;;3.30;99.90;;;1.47;100.00;101074.47;2568024;30;139070;-38
2022/01/06 00:55:49;;;;;;;11.63;2.60;;;3.30;99.90;;;1.46;100.00;101072.78;2567484;30;137024;-38
2022/01/06 00:58:18;;;;;;;11.27;2.90;;;3.30;99.90;;;1.45;100.00;101071.06;2567864;30;138345;-38
2022/01/06 01:00:45;;;;;;;9.18;2.47;;;3.30;99.90;;;1.49;100.00;101079.72;2567517;30;137080;-37
2022/01/06 01:03:21;;;;;;;14.48;2.40;;;3.30;99.90;;;1.47;100.00;101077.16;2566531;30;137393;-37
2022/01/06 01:05:54;;;;;;;13.95;2.95;;;3.30;99.90;;;1.40;100.00;101074.19;2565333;30;137432;-37
2022/01/06 01:08:26;;;;;;;11.02;2.83;;;3.30;99.90;;;1.42;100.00;101066.81;2569141;30;138194;-37
2022/01/06 01:10:56;;;;;;;10.20;2.15;;;3.20;99.90;;;1.39;100.00;101067.13;2565002;30;138477;-37
2022/01/06 01:13:32;;;;;;;10.93;1.90;;;3.20;99.90;;;1.32;100.00;101067.84;2567771;30;138258;-38
2022/01/06 01:16:10;;;;;;;8.65;2.08;;;3.20;99.90;;;1.25;100.00;101079.19;2568289;30;136692;-37
2022/01/06 01:18:44;;;;;;;;;;;3.10;99.90;;;1.19;100.00;101087.84;2566331;30;138394;-38
2022/01/06 01:21:12;;;;;;;10.40;2.00;;;3.10;99.90;;;1.10;100.00;101084.16;2567987;30;137967;-38
2022/01/06 01:23:43;;;;;;;10.98;2.13;;;3.00;99.90;;;1.02;100.00;101086.72;2567356;30;139074;-37
2022/01/06 01:26:10;;;;;;;12.25;2.28;;;2.90;99.90;;;1.01;100.00;101087.72;2568583;30;136783;-37
2022/01/06 01:28:44;;;;;;;10.90;2.13;;;2.90;99.90;;;1.03;100.00;101088.44;2566533;30;138267;-37
2022/01/06 01:33:47;;;;;;;14.48;2.35;;;2.90;99.90;;;0.92;100.00;101078.69;2566428;30;138399;-37
2022/01/06 01:36:15;;;;;;;10.48;1.92;;;2.80;99.90;;;0.90;100.00;101094.09;2566301;30;136750;-37
2022/01/06 01:38:45;;;;;;;15.63;2.65;;;2.80;99.90;;;0.93;100.00;101090.25;2565925;30;139507;-38
2022/01/06 01:41:16;;;;;;;9.95;1.95;;;2.80;99.90;;;0.88;100.00;101092.53;2567267;30;138142;-38
2022/01/06 01:43:46;;;;;;;11.90;2.08;;;2.70;99.90;;;0.85;100.00;101099.06;2567378;30;139042;-38
2022/01/06 01:46:17;;;;;;;8.40;2.08;;;2.70;99.90;;;0.88;100.00;101098.75;2565788;30;137314;-37
2022/01/06 01:48:53;;;;;;;13.45;2.30;;;2.70;99.90;;;0.86;100.00;101093.53;2568137;30;137306;-38
2022/01/06 01:51:20;;;;;;;13.43;2.47;;;2.70;99.90;;;0.84;100.00;101102.72;2565468;30;137169;-37
2022/01/06 01:53:48;;;;;;;12.57;2.20;;;2.70;99.90;;;0.91;100.00;101106.53;2568552;30;137229;-38
2022/01/06 01:56:15;;;;;;;8.52;1.90;;;2.70;99.90;;;0.81;100.00;101114.59;2568651;30;136770;-37
2022/01/06 01:58:43;;;;;;;11.18;2.20;;;2.70;99.90;;;0.77;100.00;101110.50;2567481;30;138179;-38
2022/01/06 02:01:11;;;;;;;9.32;2.08;;;2.70;99.90;;;0.85;100.00;101112.47;2566450;30;137483;-37
2022/01/06 02:03:39;;;;;;;12.68;2.08;;;2.60;99.90;;;0.78;100.00;101117.56;2567016;30;137425;-38
2022/01/06 02:06:06;;;;;;;16.65;2.17;;;2.70;99.90;;;0.80;100.00;101118.28;2566668;30;137574;-38
2022/01/06 02:08:34;;;;;;;10.93;2.13;;;2.60;99.90;;;0.85;100.00;101113.31;2568139;30;138299;-37
2022/01/06 02:11:02;;;;;;;15.25;2.10;;;2.70;99.90;;;0.84;100.00;101121.53;2567006;30;138287;-37
2022/01/06 02:13:30;;;;;;;11.40;1.90;;;2.70;99.90;;;0.84;100.00;101121.53;2567278;30;137977;-38
2022/01/06 02:16:01;;;;;;;9.57;2.33;;;2.70;99.90;;;0.85;100.00;101123.22;2567096;30;137484;-37
2022/01/06 02:18:29;;;;;;;10.60;2.58;;;2.70;99.90;;;0.77;100.00;101125.75;2567707;30;136971;-37
2022/01/06 02:20:56;;;;;;;12.52;2.30;;;2.60;99.90;;;0.82;100.00;101124.34;2567807;30;137510;-37
2022/01/06 02:23:25;;;;;;;15.20;2.25;;;2.60;99.90;;;0.83;100.00;101120.66;2567555;30;137796;-37
2022/01/06 02:25:52;;;;;;;12.10;2.25;;;2.70;99.90;;;0.90;100.00;101120.97;2566956;30;137547;-37
2022/01/06 02:28:24;;;;;;;6.95;1.55;;;2.70;99.90;;;0.83;100.00;101125.22;2567232;30;138233;-37
2022/01/06 02:30:54;;;;;;;9.93;2.03;;;2.70;99.90;;;0.89;100.00;101127.31;2567854;30;137938;-37
2022/01/06 02:33:23;;;;;;;11.75;2.50;;;2.70;99.90;;;0.90;100.00;101131.72;2567902;30;139076;-37
2022/01/06 02:35:54;;;;;;;10.77;2.70;;;2.70;99.90;;;0.96;100.00;101128.44;2568163;30;137360;-37
2022/01/06 02:38:23;;;;;;;10.25;1.73;;;2.80;99.90;;;0.89;100.00;101127.31;2567416;30;138247;-37
2022/01/06 02:40:51;;;;;;;9.63;2.15;;;2.70;99.90;;;0.84;100.00;101122.38;2567130;30;138173;-37
2022/01/06 02:43:22;;;;;;;9.70;2.42;;;2.70;99.90;;;0.83;100.00;101123.34;2568258;30;138331;-37
2022/01/06 02:45:51;;;;;;;12.45;2.30;;;2.70;99.90;;;0.82;100.00;101137.78;2567609;30;137994;-38
2022/01/06 02:48:19;;;;;;;13.55;2.20;;;2.70;99.90;;;0.75;100.00;101136.66;2567192;30;139170;-37
2022/01/06 02:50:49;;;;;;;6.15;1.70;;;2.60;99.90;;;0.79;100.00;101147.94;2567510;30;138431;-37
2022/01/06 02:53:19;;;;;;;9.93;2.42;;;2.60;99.90;;;0.74;100.00;101140.34;2567253;30;139509;-38
2022/01/06 02:55:51;;;;;;;9.88;1.92;;;2.60;99.90;;;0.64;100.00;101139.44;2567683;30;137519;-38
2022/01/06 02:58:38;;;;;;;11.43;1.95;;;2.60;99.90;;;0.58;100.00;101140.88;2568643;30;138315;-37
2022/01/06 03:01:06;;;;;;;9.73;1.83;;;2.50;99.90;;;0.57;100.00;101141.88;2568536;30;137617;-37
2022/01/06 03:03:33;;;;;;;10.57;2.25;;;2.50;99.90;;;0.56;100.00;101140.19;2569113;30;138200;-38
2022/01/06 03:06:01;;;;;;;11.10;2.22;;;2.40;99.90;;;0.54;100.00;101142.16;2567695;30;137478;-38
2022/01/06 03:08:29;;;;;;;9.77;1.98;;;2.40;99.90;;;0.56;100.00;101150.91;2568798;30;137472;-38
2022/01/06 03:10:57;;;;;;;10.13;1.95;;;2.40;99.90;;;0.58;100.00;101154.31;2566987;30;138416;-38
2022/01/06 03:13:25;;;;;;;9.20;2.30;;;2.40;99.90;;;0.59;100.00;101155.16;2568266;30;138951;-37
2022/01/06 03:15:52;;;;;;;5.82;1.75;;;2.40;99.90;;;0.57;100.00;101158.81;2568064;30;137402;-37
2022/01/06 03:18:20;;;;;;;13.63;2.95;;;2.40;99.90;;;0.62;100.00;101155.72;2570156;30;138222;-37
2022/01/06 03:20:47;;;;;;;6.40;1.75;;;2.50;99.90;;;0.74;100.00;101158.28;2568161;30;137438;-37
2022/01/06 03:23:15;;;;;;;11.50;2.20;;;2.50;99.90;;;0.80;100.00;101157.72;2569097;30;138381;-38
2022/01/06 03:25:43;;;;;;;10.55;2.15;;;2.60;99.90;;;0.74;100.00;101164.50;2568416;30;137368;-37
2022/01/06 03:28:11;;;;;;;5.95;1.65;;;2.60;99.90;;;0.71;100.00;101165.63;2565967;30;138409;-37
2022/01/06 06:35:50;;;;;;;8.73;1.83;;;2.60;99.90;;;-1.90;100.00;101357.91;2566805;30;137279;-39
2022/01/06 06:38:18;;;;;;;7.95;1.75;;;0.20;99.90;;;-1.89;100.00;101359.63;2566787;30;138232;-40
2022/01/06 06:40:46;;;;;;;7.03;2.17;;;0.20;99.90;;;-1.92;100.00;101363.38;2568166;30;138631;-40
2022/01/06 06:43:14;;;;;;;9.10;2.05;;;0.10;99.90;;;-1.93;100.00;101375.03;2565748;30;138137;-40
2022/01/06 06:45:43;;;;;;;9.02;2.35;;;0.10;99.90;;;-1.88;100.00;101372.03;2568398;30;138609;-40
2022/01/06 06:48:12;;;;;;;6.45;1.85;;;0.20;99.90;;;-1.83;100.00;101369.00;2568421;30;138419;-40
2022/01/06 06:50:40;;;;;;;13.63;3.13;;;0.20;99.90;;;-1.81;100.00;101380.44;2566176;30;137531;-40
2022/01/06 06:53:08;;;;;;;9.93;2.13;;;0.20;99.90;;;-1.80;100.00;101380.31;2568101;30;138406;-40
2022/01/06 06:55:36;;;;;;;6.65;1.98;;;0.20;99.90;;;-1.76;100.00;101387.13;2567548;30;137229;-39
2022/01/06 06:58:03;;;;;;;8.10;2.03;;;0.20;99.90;;;-1.72;100.00;101385.06;2568816;30;138187;-40
2022/01/06 07:00:31;;;;;;;4.28;2.08;;;0.30;99.90;;;-1.71;100.00;101399.31;2568121;30;138421;-39
2022/01/06 07:02:59;;;;;;;;;;;0.30;99.90;;;-1.75;100.00;101396.00;2566933;30;140438;-40
2022/01/06 07:05:27;;;;;;;7.53;2.00;;;0.30;99.90;;;-1.69;100.00;101403.56;2568130;30;137157;-40
2022/01/06 07:07:55;;;;;;;7.63;1.98;;;0.30;99.90;;;-1.69;100.00;101414.25;2569653;30;138240;-40
2022/01/06 07:10:23;;;;;;;8.15;2.13;;;0.30;99.90;;;-1.67;100.00;101406.97;2568189;30;138199;-40
2022/01/06 07:12:51;;;;;;;6.60;1.77;;;0.30;99.90;;;-1.63;100.00;101411.09;2569067;30;138393;-40
2022/01/06 07:15:18;;;;;;;7.60;1.88;;;0.30;99.90;;;-1.63;100.00;101405.75;2568680;30;137099;-40
2022/01/06 07:17:46;;;;;;;;;;;0.40;99.90;;;-1.63;100.00;101413.78;2568676;30;137828;-40
2022/01/06 07:20:13;;;;;;;6.75;1.70;;;0.40;99.90;;;-1.63;100.00;101408.44;2568770;30;137203;-40
2022/01/06 07:22:41;;;;;;;14.40;3.72;;;0.40;99.90;;;-1.56;100.00;101419.53;2566640;30;138557;-40
2022/01/06 07:25:09;;;;;;;11.02;2.85;;;0.40;99.90;;;-1.50;100.00;101419.03;2568603;30;137576;-40
2022/01/06 07:27:37;;;;;;;9.10;2.60;;;0.40;99.90;;;-1.43;100.00;101431.97;2568833;30;137501;-40
2022/01/06 07:30:07;;;;;;;7.88;2.83;;;0.50;99.90;;;-1.48;100.00;101424.28;2569336;30;137522;-40
2022/01/06 07:32:47;;;;;;;8.18;2.05;;;0.50;99.90;;;-1.43;100.00;101434.66;2569393;30;138978;-40
2022/01/06 07:35:18;;;;;;;10.30;2.38;;;0.50;99.90;;;-1.46;100.00;101436.59;2569636;30;137503;-39
2022/01/06 07:37:48;;;;;;;7.78;2.53;;;0.50;99.90;;;-1.50;100.00;101443.13;2569300;30;138087;-40
2022/01/06 07:40:17;;;;;;;12.30;3.40;;;0.50;99.90;;;-1.57;100.00;101441.91;2566462;30;137491;-39
2022/01/06 07:42:46;;;;;;;6.28;1.88;;;0.50;99.90;;;-1.62;100.00;101450.28;2568187;30;139051;-40
2022/01/06 07:45:15;;;;;;;13.55;3.00;;;0.40;99.90;;;-1.67;100.00;101448.94;2568500;30;137445;-40
2022/01/06 07:47:54;;;;;;;14.20;3.03;;;0.40;99.90;;;-1.73;100.00;101460.97;2568196;30;137252;-40
2022/01/06 07:50:26;;;;;;;10.35;2.60;;;0.30;99.90;;;-1.79;100.00;101464.94;2568119;30;138399;-40
2022/01/06 07:52:54;;;;;;;11.63;3.38;;;0.20;99.90;;;-1.89;100.00;101467.47;2568332;30;138166;-40
2022/01/06 07:55:22;;;;;;;9.90;3.00;;;0.20;99.90;;;-1.91;100.00;101472.06;2565118;30;137420;-40
2022/01/06 07:57:50;;;;;;;;;;;0.10;99.90;;;-1.93;100.00;101482.03;2569159;30;138500;-40
2022/01/06 08:00:20;;;;;;;5.50;1.88;;;0.10;99.90;;;-1.91;100.00;101485.44;2568868;30;136882;-40
2022/01/06 08:02:48;;;;;;;12.85;2.63;;;0.10;99.90;;;-1.89;100.00;101488.00;2568814;30;137912;-40
2022/01/06 08:05:16;;;;;;;10.50;2.53;;;0.10;99.90;;;-1.88;100.00;101489.72;2569066;30;139152;-40
2022/01/06 08:07:43;;;;;;;;;;;0.10;99.90;;;-1.83;100.00;101492.91;2568550;30;139123;-39
2022/01/06 08:10:11;;;;;;;6.40;2.10;;;0.10;99.90;;;-1.81;100.00;101499.00;2568144;30;138072;-40
2022/01/06 08:12:39;;;;;;;9.32;2.75;;;0.10;99.90;;;-1.81;100.00;101496.31;2567799;30;137158;-40
2022/01/06 08:15:08;;;;;;;7.72;3.05;;;0.20;99.90;;;-1.78;100.00;101495.25;2566830;30;138194;-40
2022/01/06 08:17:36;;;;;;;8.15;2.70;;;0.20;99.90;;;-1.74;100.00;101497.56;2565109;30;138184;-40
2022/01/06 08:20:09;;;;;;;10.02;2.90;;;0.20;99.90;;;-1.67;100.00;101497.13;2568089;30;137020;-40
2022/01/06 08:22:37;;;;;;;7.20;2.20;;;0.20;99.90;;;-1.62;100.00;101498.44;2566915;30;138456;-40
2022/01/06 08:25:08;;;;;;;7.32;2.53;;;0.30;99.90;;;-1.47;100.00;101503.63;2566577;30;138231;-40
2022/01/06 08:27:35;;;;;;;8.10;3.00;;;0.40;99.90;;;-1.41;100.00;101510.34;2568063;30;137916;-40
2022/01/06 08:30:06;;;;;;;6.93;2.10;;;0.50;99.90;;;-1.32;100.00;101509.63;2568599;30;138459;-39
2022/01/06 08:32:34;;;;;;;9.40;2.67;;;0.50;99.90;;;-1.25;100.00;101513.53;2566499;30;138419;-40
2022/01/06 08:35:03;;;;;;;9.00;2.63;;;0.60;99.90;;;-1.21;100.00;101519.53;2568249;30;138398;-40
2022/01/06 08:37:31;;;;;;;6.88;2.85;;;0.70;99.90;;;-1.17;100.00;101526.34;2567546;30;138246;-40
2022/01/06 08:39:58;;;;;;;11.80;3.38;;;0.70;99.90;;;-1.17;100.00;101518.31;2567784;30;137415;-40
2022/01/06 08:42:26;;;;;;;10.45;2.67;;;0.70;99.90;;;-1.18;100.00;101521.94;2567566;30;139098;-40
2022/01/06 08:44:54;;;;;;;7.30;2.78;;;0.70;99.90;;;-1.17;100.00;101519.16;2568229;30;136788;-40
2022/01/06 08:47:22;;;;;;;7.20;2.67;;;0.70;99.90;;;-1.16;100.00;101520.88;2568039;30;138238;-40
2022/01/06 08:49:49;;;;;;;;;;;0.80;99.90;;;-1.16;100.00;101528.91;2567163;30;137765;-40
2022/01/06 08:52:17;;;;;;;7.18;2.50;;;0.80;99.90;;;-1.16;100.00;101522.69;2566872;30;138325;-40
2022/01/06 08:54:44;;;;;;;6.53;2.45;;;0.80;99.90;;;-1.15;100.00;101524.41;2566023;30;137460;-40
2022/01/06 08:57:12;;;;;;;10.25;3.35;;;0.80;99.90;;;-1.12;100.00;101528.66;2567613;30;138147;-40
2022/01/06 08:59:39;;;;;;;9.48;2.67;;;0.80;99.90;;;-1.07;100.00;101535.34;2567606;30;138130;-40
2022/01/06 09:02:08;;;;;;;;;;;0.80;99.90;;;-1.04;100.00;101535.16;2567975;30;139131;-40
2022/01/06 09:04:36;;;;;;;12.75;4.30;;;0.80;99.90;;;-0.99;100.00;101536.63;2567148;30;137580;-40
2022/01/06 09:07:04;;;;;;;15.85;3.63;;;0.90;99.90;;;-0.87;100.00;101543.69;2568300;30;138183;-40
2022/01/06 09:09:32;;;;;;;;;;;0.90;99.90;;;-0.78;100.00;101540.31;2568560;30;137847;-40
2022/01/06 09:12:00;;;;;;;14.43;3.75;;;1.00;99.90;;;-0.70;100.00;101545.03;2568023;30;138295;-40
2022/01/06 09:14:28;;;;;;;14.40;3.67;;;1.10;99.90;;;-0.62;100.00;101549.78;2567902;30;137495;-40
2022/01/06 09:16:55;;;;;;;13.10;3.58;;;1.20;99.90;;;-0.55;100.00;101564.41;2564531;30;139454;-40
2022/01/06 09:19:23;;;;;;;8.27;3.35;;;1.20;99.90;;;-0.52;100.00;101553.47;2567601;30;138150;-40
2022/01/06 09:21:51;;;;;;;15.20;4.13;;;1.30;99.90;;;-0.44;100.00;101556.38;2567162;30;139360;-40
2022/01/06 09:24:19;;;;;;;10.82;3.40;;;1.40;99.90;;;-0.44;100.00;101545.66;2568727;30;136645;-40
2022/01/06 09:26:47;;;;;;;15.35;4.13;;;1.40;99.90;;;-0.33;100.00;101557.34;2568251;30;137149;-40
2022/01/06 09:29:14;;;;;;;12.32;3.60;;;1.40;99.90;;;-0.26;100.00;101555.91;2567421;30;136972;-40
2022/01/06 09:31:42;;;;;;;15.05;3.90;;;1.50;99.90;;;-0.16;100.00;101553.31;2566668;30;138192;-40
2022/01/06 09:34:10;;;;;;;14.88;4.30;;;1.60;99.90;;;-0.10;100.00;101550.16;2566856;30;137379;-39
2022/01/06 09:36:41;;;;;;;14.00;4.18;;;1.70;99.90;;;0.04;100.00;101557.06;2568446;30;137593;-40
2022/01/06 09:39:12;;;;;;;12.35;4.15;;;1.70;99.90;;;0.13;100.00;101559.00;2568608;30;137404;-40
2022/01/06 09:41:40;;;;;;;8.32;3.65;;;1.80;99.90;;;0.20;100.00;101551.28;2568463;30;137334;-40
2022/01/06 09:44:08;;;;;;;15.00;4.35;;;1.90;99.90;;;0.28;100.00;101556.88;2565839;30;136858;-40
2022/01/06 09:46:56;;;;;;;12.18;4.15;;;2.00;99.90;;;0.37;100.00;101562.44;2567900;30;138559;-40
2022/01/06 09:49:24;;;;;;;;;;;2.00;99.90;;;0.39;100.00;101563.16;2568190;30;136803;-40
2022/01/06 09:51:52;;;;;;;17.15;4.80;;;2.10;99.90;;;0.49;100.00;101568.63;2567026;30;138294;-40
2022/01/06 09:54:20;;;;;;;16.83;4.97;;;2.20;99.90;;;0.59;100.00;101563.34;2567860;30;137104;-40
2022/01/06 09:56:48;;;;;;;13.20;4.50;;;2.30;99.90;;;0.70;100.00;101566.00;2565176;30;139382;-40
2022/01/06 09:59:15;;;;;;;18.13;4.93;;;2.40;99.90;;;0.77;100.00;101569.00;2566726;30;138379;-40
2022/01/06 10:01:43;;;;;;;14.68;5.18;;;2.40;99.90;;;0.77;100.00;101569.00;2567821;30;137980;-40
2022/01/06 10:04:28;;;;;;;13.27;5.38;;;2.50;99.90;;;0.79;100.00;101573.28;2567868;30;137546;-40
2022/01/06 10:07:08;;;;;;;11.82;4.88;;;2.50;99.90;;;0.87;100.00;101575.31;2567855;30;139417;-40
2022/01/06 10:09:39;;;;;;;15.95;4.90;;;2.60;99.90;;;1.02;100.00;101577.66;2568077;30;138185;-40
2022/01/06 10:12:13;;;;;;;16.15;5.63;;;2.70;99.90;;;1.17;100.00;101587.13;2566783;30;138425;-40
2022/01/06 10:14:46;;;;;;;14.98;5.10;;;2.80;99.90;;;1.27;100.00;101587.19;2568685;30;138405;-40
2022/01/06 10:17:33;;;;;;;13.23;4.78;;;2.90;99.90;;;1.33;100.00;101585.81;2568688;30;138366;-39
2022/01/06 10:20:20;;;;;;;17.70;4.93;;;3.00;99.90;;;1.36;100.00;101582.84;2569343;30;138195;-40
2022/01/06 10:22:52;;;;;;;14.75;5.45;;;3.00;99.90;;;1.42;100.00;101582.31;2568935;30;138105;-40
2022/01/06 10:25:24;;;;;;;11.82;5.10;;;3.10;99.90;;;1.53;100.00;101584.91;2568713;30;137523;-39
2022/01/06 10:27:57;;;;;;;15.85;5.70;;;3.20;99.90;;;1.68;100.00;101576.47;2567927;30;138983;-40
2022/01/06 10:30:26;;;;;;;14.88;5.65;;;3.30;99.90;;;1.79;100.00;101580.91;2569587;30;137583;-39
2022/01/06 10:32:59;;;;;;;18.05;5.82;;;3.40;99.90;;;1.96;100.00;101587.47;2568395;30;137530;-40
2022/01/06 10:35:26;;;;;;;14.82;6.60;;;3.50;99.90;;;2.04;100.00;101582.25;2568767;30;136844;-40
2022/01/06 10:37:54;;;;;;;16.20;6.68;;;3.60;99.90;;;2.09;100.00;101576.47;2568149;30;139070;-39
2022/01/06 10:40:27;;;;;;;15.65;6.30;;;3.70;99.90;;;2.15;100.00;101581.28;2567207;30;137705;-39
2022/01/06 10:43:05;;;;;;;18.30;6.47;;;3.70;99.90;;;2.22;100.00;101587.81;2568940;30;137903;-40
2022/01/06 10:45:35;;;;;;;16.48;6.68;;;3.80;99.90;;;2.30;100.00;101576.34;2568303;30;138383;-40
2022/01/06 10:48:04;;;;;;;19.00;7.03;;;3.90;99.90;;;2.35;100.00;101576.78;2568332;30;137464;-40
2022/01/06 10:50:43;;;;;;;14.10;6.45;;;3.90;99.90;;;2.42;100.00;101577.94;2567914;30;137457;-40
2022/01/06 10:53:12;;;;;;;17.05;6.13;;;4.00;99.90;;;2.46;100.00;101578.50;2567706;30;138124;-40
2022/01/06 10:55:46;;;;;;;15.20;6.28;;;4.10;99.90;;;2.48;100.00;101570.28;2568284;30;137468;-40
2022/01/06 10:58:19;;;;;;;20.55;6.57;;;4.10;99.90;;;2.50;100.00;101571.00;2569261;30;138388;-40
2022/01/06 11:00:53;;;;;;;13.73;5.75;;;4.10;99.90;;;2.49;100.00;101559.34;2567607;30;136792;-40
2022/01/06 11:03:28;;;;;;;12.38;5.38;;;4.10;99.90;;;2.49;100.00;101558.50;2569991;30;137129;-39
2022/01/06 11:06:00;;;;;;;19.63;5.90;;;4.20;99.90;;;2.56;100.00;101563.19;2568092;30;137514;-40
2022/01/06 11:08:36;;;;;;;17.17;6.40;;;4.20;99.90;;;2.68;100.00;101561.22;2568230;30;138206;-40
2022/01/06 11:13:49;;;;;;;16.48;5.50;;;4.30;99.90;;;2.81;100.00;101563.63;2565805;30;138658;-40
2022/01/06 11:16:19;;;;;;;14.27;5.97;;;4.40;99.90;;;2.91;100.00;101565.44;2568650;30;137022;-40
2022/01/06 11:18:55;;;;;;;17.17;7.18;;;4.50;99.90;;;2.96;100.00;101568.56;2566364;30;138163;-40
2022/01/06 11:21:48;;;;;;;15.25;6.57;;;4.50;99.90;;;3.01;100.00;101574.34;2567624;30;137381;-40
2022/01/06 11:24:20;;;;;;;18.52;6.28;;;4.60;99.90;;;3.10;100.00;101572.66;2568185;30;139035;-40
2022/01/06 11:27:05;;;;;;;18.83;6.55;;;4.60;99.90;;;3.12;100.00;101566.13;2568340;30;137564;-40
2022/01/06 11:29:40;;;;;;;13.77;6.35;;;4.70;99.90;;;3.17;100.00;101571.94;2567935;30;139138;-40
2022/01/06 11:32:24;;;;;;;20.15;7.07;;;4.70;99.90;;;3.23;100.00;101570.50;2568400;30;137716;-40
2022/01/06 11:35:18;;;;;;;15.50;7.05;;;4.80;99.90;;;3.35;100.00;101573.88;2567662;30;137511;-40
2022/01/06 11:37:50;;;;;;;16.75;6.85;;;4.90;99.90;;;3.35;100.00;101575.72;2569050;30;137416;-40
2022/01/06 11:40:30;;;;;;;18.55;7.28;;;4.90;99.90;;;3.47;100.00;101573.69;2566804;30;137466;-40
2022/01/06 11:42:59;;;;;;;17.05;7.57;;;5.00;99.90;;;3.55;100.00;101579.19;2566608;30;136968;-40
2022/01/06 11:45:27;;;;;;;17.20;7.00;;;5.10;99.90;;;3.55;100.00;101584.59;2568174;30;139097;-40
2022/01/06 11:48:06;;;;;;;16.73;7.53;;;5.10;99.90;;;3.57;100.00;101579.91;2567799;30;137527;-40
2022/01/06 11:50:46;;;;;;;21.55;9.10;;;5.10;99.90;;;3.56;100.00;101570.97;2565929;30;139200;-40
2022/01/06 11:53:18;;;;;;;17.58;8.25;;;5.20;99.90;;;3.58;100.00;101574.38;2568243;30;137495;-40
2022/01/06 11:55:47;;;;;;;21.90;8.63;;;5.20;99.90;;;3.61;100.00;101575.94;2568027;30;138296;-40
2022/01/06 11:58:22;;;;;;;27.10;10.25;;;5.20;99.90;;;3.63;100.00;101581.16;2567628;30;136912;-40
2022/01/06 12:01:05;;;;;;;23.05;9.95;;;5.20;99.90;;;3.58;100.00;101570.81;2569071;30;137112;-40
2022/01/06 12:03:39;;;;;;;20.90;9.45;;;5.20;99.90;;;3.53;100.00;101563.16;2569713;30;137605;-40
2022/01/06 12:06:09;;;;;;;23.75;10.07;;;5.20;99.90;;;3.49;100.00;101575.25;2568946;30;137397;-40
2022/01/06 12:08:43;;;;;;;19.85;8.77;;;5.20;99.90;;;3.44;100.00;101585.63;2568164;30;137414;-40
2022/01/06 12:11:37;;;;;;;22.05;9.10;;;5.10;99.90;;;3.38;100.00;101581.69;2567472;30;138160;-40
2022/01/06 12:14:04;;;;;;;17.70;7.50;;;5.00;99.90;;;3.34;100.00;101579.41;2567865;30;136834;-40
2022/01/06 12:16:41;;;;;;;20.58;8.40;;;5.00;99.90;;;3.36;100.00;101583.69;2568147;30;137930;-40
2022/01/06 12:19:24;;;;;;;20.08;8.35;;;5.00;99.90;;;3.41;100.00;101580.53;2565683;30;138830;-40
2022/01/06 12:21:52;;;;;;;19.00;7.70;;;5.00;99.90;;;3.43;100.00;101578.53;2566637;30;139196;-40
2022/01/06 12:24:19;;;;;;;;;;;5.00;99.90;;;3.48;100.00;101576.25;2569444;30;137468;-40
2022/01/06 12:26:47;;;;;;;21.90;7.60;;;5.10;99.90;;;3.56;100.00;101578.19;2568368;30;138138;-40
2022/01/06 12:29:23;;;;;;;17.15;8.15;;;5.10;99.90;;;3.62;100.00;101580.31;2568198;30;137608;-39
2022/01/06 12:31:51;;;;;;;19.63;7.53;;;5.20;99.90;;;3.72;100.00;101574.91;2567428;30;137161;-40
2022/01/06 12:34:20;;;;;;;20.42;7.72;;;5.30;99.90;;;3.86;100.00;101570.84;2569272;30;138634;-38
2022/01/06 12:36:48;;;;;;;21.52;8.07;;;5.40;99.90;;;3.97;100.00;101572.47;2568210;30;137467;-37
2022/01/06 12:39:22;;;;;;;17.25;7.45;;;5.50;99.90;;;4.03;100.00;101567.31;2568510;30;136834;-38
2022/01/06 12:41:51;;;;;;;17.98;7.63;;;5.50;99.90;;;4.13;100.00;101571.84;2568690;30;138457;-38
2022/01/06 12:44:28;;;;;;;16.90;7.40;;;5.60;99.90;;;4.17;100.00;101574.06;2568286;30;137375;-38
2022/01/06 12:46:57;;;;;;;21.35;7.50;;;5.70;99.90;;;4.27;100.00;101565.91;2568108;30;138413;-37
2022/01/06 12:49:28;;;;;;;20.05;7.10;;;5.80;99.90;;;4.32;100.00;101557.34;2567385;30;138453;-37
2022/01/06 12:51:57;;;;;;;14.18;6.47;;;5.80;99.90;;;4.37;100.00;101555.03;2566249;30;138307;-38
2022/01/06 12:54:25;;;;;;;18.92;6.53;;;5.90;99.90;;;4.29;100.00;101553.09;2564939;30;137022;-38
2022/01/06 12:56:56;;;;;;;12.57;5.38;;;5.90;99.90;;;4.28;100.00;101558.66;2566464;30;138178;-37
2022/01/06 12:59:34;;;;;;;20.15;5.72;;;5.80;99.90;;;4.20;100.00;101563.94;2566026;30;138274;-37
2022/01/06 13:02:14;;;;;;;15.97;5.87;;;5.80;99.90;;;4.09;100.00;101560.47;2567357;30;139306;-37
2022/01/06 13:04:46;;;;;;;15.38;5.72;;;5.70;99.90;;;4.08;100.00;101556.06;2568367;30;136891;-37
2022/01/06 13:07:16;;;;;;;14.57;6.45;;;5.70;99.90;;;4.21;100.00;101546.75;2565620;30;138324;-37
2022/01/06 13:09:46;;;;;;;16.60;6.00;;;5.80;99.90;;;4.35;100.00;101542.66;2568166;30;138312;-37
2022/01/06 13:12:26;;;;;;;15.68;5.60;;;5.80;99.90;;;4.42;100.00;101543.78;2567688;30;137836;-38
2022/01/06 13:14:54;;;;;;;19.27;5.25;;;6.00;99.90;;;4.41;100.00;101545.59;2568018;30;137654;-37
2022/01/06 13:17:30;;;;;;;17.48;6.03;;;6.00;99.90;;;4.37;100.00;101536.13;2567296;30;137918;-38
2022/01/06 13:20:14;;;;;;;15.20;5.38;;;6.00;99.90;;;4.33;100.00;101537.44;2567969;30;136743;-37
2022/01/06 13:25:31;;;;;;;19.05;6.53;;;5.90;99.90;;;4.17;100.00;101532.72;2567681;30;136969;-37
2022/01/06 13:28:11;;;;;;;13.40;6.20;;;5.80;99.90;;;4.12;100.00;101525.06;2565809;30;136792;-38
2022/01/06 13:30:48;;;;;;;14.80;5.78;;;5.80;99.90;;;4.09;100.00;101530.78;2568180;30;136701;-38
2022/01/06 13:33:23;;;;;;;17.85;6.57;;;5.70;99.90;;;4.10;100.00;101537.00;2568387;30;137464;-37
2022/01/06 13:36:03;;;;;;;14.18;5.60;;;5.70;99.90;;;4.07;100.00;101529.22;2567771;30;137088;-38
2022/01/06 13:38:36;;;;;;;13.80;5.45;;;5.70;99.90;;;4.03;100.00;101513.31;2567153;30;138311;-38
2022/01/06 13:41:09;;;;;;;15.68;5.70;;;5.70;99.90;;;4.14;100.00;101523.06;2568077;30;136971;-38
2022/01/06 13:43:42;;;;;;;13.40;5.05;;;5.80;99.90;;;4.30;100.00;101521.53;2569258;30;138225;-37
2022/01/06 13:46:23;;;;;;;19.42;5.82;;;5.80;99.90;;;4.37;100.00;101519.03;2567689;30;137513;-37